createdAt,value
2022-09-23T00:01:07.145Z,4.25
2022-09-23T00:03:24.172Z,3.30
2022-09-23T00:05:41.527Z,4.35
2022-09-23T00:07:58.587Z,4.05
2022-09-23T00:10:15.976Z,4.53
2022-09-23T00:12:33.008Z,3.72
2022-09-23T00:14:50.578Z,6.70
2022-09-23T00:17:07.689Z,4.32
2022-09-23T00:19:24.823Z,4.53
2022-09-23T00:21:41.758Z,5.63
2022-09-23T00:23:59.513Z,4.45
2022-09-23T00:26:16.514Z,4.47
2022-09-23T00:28:33.596Z,7.25
2022-09-23T00:30:50.906Z,3.88
2022-09-23T00:33:08.015Z,4.82
2022-09-23T00:35:25.248Z,4.85
2022-09-23T00:37:42.195Z,6.78
2022-09-23T00:39:59.187Z,7.03
2022-09-23T00:42:17.503Z,4.25
2022-09-23T00:44:35.125Z,4.70
2022-09-23T00:46:52.178Z,3.85
2022-09-23T00:49:09.135Z,5.15
2022-09-23T00:51:26.435Z,4.75
2022-09-23T00:53:43.767Z,5.72
2022-09-23T00:56:01.196Z,5.05
2022-09-23T00:58:19.465Z,4.53
2022-09-23T01:00:36.920Z,6.10
2022-09-23T01:02:54.127Z,5.25
2022-09-23T01:05:11.424Z,8.38
2022-09-23T01:07:28.507Z,3.90
2022-09-23T01:09:45.764Z,5.97
2022-09-23T01:12:03.038Z,8.70
2022-09-23T01:14:20.445Z,6.28
2022-09-23T01:16:37.676Z,3.78
2022-09-23T01:18:58.025Z,5.53
2022-09-23T01:21:15.303Z,4.30
2022-09-23T01:23:33.585Z,5.82
2022-09-23T01:25:50.578Z,4.43
2022-09-23T01:28:08.518Z,4.50
2022-09-23T01:30:25.682Z,3.85
2022-09-23T01:32:44.071Z,3.95
2022-09-23T01:35:01.099Z,5.30
2022-09-23T01:37:19.394Z,5.53
2022-09-23T01:39:36.672Z,4.97
2022-09-23T01:41:53.938Z,3.88
2022-09-23T01:44:11.289Z,5.32
2022-09-23T01:46:28.300Z,4.88
2022-09-23T01:48:48.016Z,5.32
2022-09-23T01:51:06.072Z,4.15
2022-09-23T01:53:23.486Z,3.78
2022-09-23T01:55:40.965Z,4.22
2022-09-23T01:57:58.955Z,3.70
2022-09-23T02:00:15.914Z,6.35
2022-09-23T02:02:32.981Z,4.95
2022-09-23T02:04:50.348Z,3.90
2022-09-23T02:07:07.604Z,6.88
2022-09-23T02:09:24.922Z,4.40
2022-09-23T02:11:42.206Z,4.65
2022-09-23T02:14:01.124Z,6.97
2022-09-23T02:16:18.319Z,4.78
2022-09-23T02:18:35.303Z,3.80
2022-09-23T02:20:53.700Z,3.15
2022-09-23T02:23:10.781Z,4.18
2022-09-23T02:25:28.004Z,6.28
2022-09-23T02:27:44.996Z,5.15
2022-09-23T02:30:02.039Z,6.38
2022-09-23T02:32:20.382Z,5.07
2022-09-23T02:34:39.035Z,3.95
2022-09-23T02:36:56.369Z,3.35
2022-09-23T02:39:14.975Z,4.70
2022-09-23T02:41:31.987Z,4.40
2022-09-23T02:43:49.093Z,4.75
2022-09-23T02:46:06.296Z,3.35
2022-09-23T02:48:24.715Z,5.20
2022-09-23T02:50:41.673Z,4.72
2022-09-23T02:52:58.699Z,3.70
2022-09-23T02:55:17.122Z,4.13
2022-09-23T02:57:35.204Z,3.70
2022-09-23T02:59:52.301Z,3.97
2022-09-23T03:02:09.376Z,4.53
2022-09-23T03:04:26.380Z,3.92
2022-09-23T03:06:43.626Z,4.32
2022-09-23T03:09:02.127Z,3.97
2022-09-23T03:11:19.368Z,4.03
2022-09-23T03:13:37.443Z,5.43
2022-09-23T03:15:54.455Z,3.78
2022-09-23T03:18:11.439Z,6.85
2022-09-23T03:20:28.549Z,4.00
2022-09-23T03:22:45.496Z,4.13
2022-09-23T03:25:02.804Z,3.95
2022-09-23T03:27:20.022Z,5.45
2022-09-23T03:29:37.224Z,4.55
2022-09-23T03:31:55.561Z,5.68
2022-09-23T03:34:13.885Z,6.07
2022-09-23T03:36:31.170Z,4.43
2022-09-23T03:38:48.232Z,3.60
2022-09-23T03:41:05.469Z,3.90
2022-09-23T03:43:22.509Z,4.97
2022-09-23T03:45:40.798Z,4.20
2022-09-23T03:47:57.944Z,3.95
2022-09-23T03:50:15.464Z,4.32
2022-09-23T03:52:32.735Z,4.80
2022-09-23T03:54:50.082Z,4.35
2022-09-23T03:57:07.076Z,3.80
2022-09-23T03:59:24.434Z,6.97
2022-09-23T04:01:41.742Z,4.90
2022-09-23T04:03:58.859Z,4.15
2022-09-23T04:06:16.464Z,5.65
2022-09-23T04:08:34.372Z,4.10
2022-09-23T04:10:54.744Z,4.70
2022-09-23T04:13:12.339Z,4.80
2022-09-23T04:15:29.390Z,4.43
2022-09-23T04:17:46.677Z,4.63
2022-09-23T04:20:04.012Z,6.40
2022-09-23T04:22:21.008Z,5.07
2022-09-23T04:24:38.055Z,5.53
2022-09-23T04:26:57.754Z,4.68
2022-09-23T04:29:15.000Z,5.97
2022-09-23T04:31:32.375Z,3.78
2022-09-23T04:33:49.327Z,7.80
2022-09-23T04:36:06.652Z,4.53
2022-09-23T04:38:23.725Z,6.28
2022-09-23T04:40:40.850Z,4.82
2022-09-23T04:42:58.200Z,4.95
2022-09-23T04:45:15.566Z,4.22
2022-09-23T04:47:32.856Z,4.82
2022-09-23T04:49:50.873Z,4.10
2022-09-23T04:52:08.065Z,6.70
2022-09-23T04:54:25.345Z,4.72
2022-09-23T04:56:43.626Z,5.47
2022-09-23T04:59:02.117Z,5.03
2022-09-23T05:01:19.170Z,4.65
2022-09-23T05:03:36.251Z,5.68
2022-09-23T05:05:53.259Z,5.20
2022-09-23T05:08:10.280Z,5.35
2022-09-23T05:10:27.827Z,7.10
2022-09-23T05:12:44.821Z,5.60
2022-09-23T05:15:02.074Z,4.53
2022-09-23T05:17:19.195Z,8.35
2022-09-23T05:19:36.178Z,5.53
2022-09-23T05:21:53.468Z,4.20
2022-09-23T05:24:10.688Z,4.90
2022-09-23T05:26:27.760Z,5.55
2022-09-23T05:28:44.830Z,4.68
2022-09-23T05:31:02.203Z,9.63
2022-09-23T05:33:19.251Z,9.15
2022-09-23T05:35:36.163Z,4.22
2022-09-23T05:37:54.424Z,7.68
2022-09-23T05:40:11.763Z,6.15
2022-09-23T05:42:28.877Z,7.75
2022-09-23T05:44:46.160Z,9.63
2022-09-23T05:47:04.106Z,5.35
2022-09-23T05:49:33.058Z,5.28
2022-09-23T05:51:58.843Z,6.28
2022-09-23T05:54:15.937Z,6.50
2022-09-23T05:56:32.922Z,5.60
2022-09-23T05:58:51.138Z,5.13
2022-09-23T06:01:11.691Z,4.30
2022-09-23T06:03:29.922Z,5.55
2022-09-23T06:05:47.373Z,5.55
2022-09-23T06:08:04.405Z,5.97
2022-09-23T06:10:22.674Z,4.68
2022-09-23T06:12:39.751Z,5.93
2022-09-23T06:14:56.808Z,4.05
2022-09-23T06:17:16.400Z,4.68
2022-09-23T06:19:33.471Z,7.28
2022-09-23T06:21:50.357Z,6.38
2022-09-23T06:24:07.858Z,7.10
2022-09-23T06:26:25.244Z,5.40
2022-09-23T06:28:42.608Z,7.35
2022-09-23T06:30:59.964Z,6.20
2022-09-23T06:33:20.460Z,7.88
2022-09-23T06:35:50.204Z,6.80
2022-09-23T06:38:12.113Z,12.82
2022-09-23T06:40:30.405Z,8.48
2022-09-23T06:42:52.093Z,7.45
2022-09-23T06:45:10.673Z,8.77
2022-09-23T06:47:27.844Z,7.25
2022-09-23T06:49:45.870Z,9.45
2022-09-23T06:52:02.925Z,6.78
2022-09-23T06:54:20.025Z,8.30
2022-09-23T06:56:39.441Z,8.75
2022-09-23T06:58:56.849Z,10.98
2022-09-23T07:01:14.011Z,14.27
2022-09-23T07:03:30.971Z,9.32
2022-09-23T07:05:48.187Z,11.63
2022-09-23T07:08:05.237Z,10.95
2022-09-23T07:10:22.273Z,11.20
2022-09-23T07:12:39.540Z,5.60
2022-09-23T07:14:56.746Z,5.75
2022-09-23T07:17:13.975Z,6.25
2022-09-23T07:19:31.212Z,5.18
2022-09-23T07:21:48.476Z,4.03
2022-09-23T07:24:07.053Z,4.70
2022-09-23T07:26:24.235Z,4.43
2022-09-23T07:28:41.151Z,3.50
2022-09-23T07:31:00.731Z,3.55
2022-09-23T07:33:30.779Z,3.60
2022-09-23T07:35:49.186Z,5.82
2022-09-23T07:38:06.552Z,5.95
2022-09-23T07:40:24.535Z,4.70
2022-09-23T07:42:41.891Z,5.78
2022-09-23T07:44:58.841Z,6.63
2022-09-23T07:47:16.858Z,4.65
2022-09-23T07:49:33.914Z,4.55
2022-09-23T07:51:51.766Z,4.93
2022-09-23T07:54:09.121Z,5.60
2022-09-23T07:56:26.364Z,5.15
2022-09-23T07:58:44.247Z,6.72
2022-09-23T08:01:01.305Z,6.68
2022-09-23T08:03:18.635Z,4.85
2022-09-23T08:05:35.669Z,4.05
2022-09-23T08:07:53.900Z,6.05
2022-09-23T08:10:12.059Z,4.22
2022-09-23T08:12:31.354Z,5.15
2022-09-23T08:14:48.235Z,8.10
2022-09-23T08:17:05.464Z,3.97
2022-09-23T08:19:22.456Z,8.90
2022-09-23T08:21:41.401Z,5.35
2022-09-23T08:23:58.450Z,5.10
2022-09-23T08:26:21.258Z,6.60
2022-09-23T08:28:40.625Z,5.57
2022-09-23T08:30:58.006Z,4.28
2022-09-23T08:33:16.677Z,6.47
2022-09-23T08:35:36.955Z,6.65
2022-09-23T08:37:53.967Z,6.00
2022-09-23T08:40:10.936Z,6.00
2022-09-23T08:42:28.234Z,5.25
2022-09-23T08:44:46.265Z,5.93
2022-09-23T08:47:04.043Z,8.85
2022-09-23T08:49:21.364Z,4.90
2022-09-23T08:51:38.243Z,4.63
2022-09-23T08:53:55.693Z,4.65
2022-09-23T08:56:13.286Z,6.53
2022-09-23T08:58:31.223Z,9.70
2022-09-23T09:00:48.213Z,8.10
2022-09-23T09:03:06.230Z,9.55
2022-09-23T09:05:23.494Z,6.50
2022-09-23T09:07:41.724Z,5.68
2022-09-23T09:09:58.707Z,7.70
2022-09-23T09:12:15.595Z,6.35
2022-09-23T09:14:33.634Z,3.97
2022-09-23T09:17:02.690Z,7.03
2022-09-23T09:19:20.706Z,6.78
2022-09-23T09:21:37.765Z,6.35
2022-09-23T09:23:55.976Z,4.75
2022-09-23T09:26:14.068Z,4.68
2022-09-23T09:28:31.170Z,6.15
2022-09-23T09:30:52.180Z,5.18
2022-09-23T09:33:09.163Z,6.30
2022-09-23T09:35:26.211Z,5.03
2022-09-23T09:37:43.499Z,7.18
2022-09-23T09:40:01.790Z,4.10
2022-09-23T09:42:19.139Z,9.43
2022-09-23T09:44:37.203Z,6.65
2022-09-23T09:46:54.442Z,3.65
2022-09-23T09:49:11.439Z,5.43
2022-09-23T09:51:28.372Z,4.88
2022-09-23T09:53:45.586Z,5.97
2022-09-23T09:56:05.866Z,7.55
2022-09-23T09:58:23.221Z,6.03
2022-09-23T10:00:42.371Z,5.28
2022-09-23T10:02:59.693Z,5.63
2022-09-23T10:05:16.930Z,5.15
2022-09-23T10:07:33.819Z,3.63
2022-09-23T10:09:50.826Z,4.35
2022-09-23T10:12:08.174Z,3.50
2022-09-23T10:14:25.467Z,5.40
2022-09-23T10:16:42.539Z,5.68
2022-09-23T10:19:06.960Z,5.50
2022-09-23T10:21:27.711Z,4.28
2022-09-23T10:23:45.059Z,4.63
2022-09-23T10:26:02.367Z,4.18
2022-09-23T10:28:20.626Z,4.43
2022-09-23T10:30:37.852Z,4.60
2022-09-23T10:32:57.983Z,4.10
2022-09-23T10:35:16.044Z,4.20
2022-09-23T10:37:33.104Z,3.95
2022-09-23T10:39:50.142Z,8.20
2022-09-23T10:42:07.555Z,3.72
2022-09-23T10:44:24.905Z,3.45
2022-09-23T10:46:41.864Z,2.88
2022-09-23T10:48:59.677Z,5.10
2022-09-23T10:51:16.626Z,6.57
2022-09-23T10:53:34.103Z,3.80
2022-09-23T10:55:51.649Z,2.92
2022-09-23T10:58:08.957Z,7.57
2022-09-23T11:00:26.043Z,4.05
2022-09-23T11:02:43.070Z,4.05
2022-09-23T11:05:00.024Z,2.78
2022-09-23T11:07:17.456Z,2.92
2022-09-23T11:09:34.471Z,3.47
2022-09-23T11:11:51.426Z,4.47
2022-09-23T11:14:08.483Z,5.22
2022-09-23T11:16:25.573Z,26.55
2022-09-23T11:18:42.903Z,53.00
2022-09-23T11:21:00.126Z,19.17
2022-09-23T11:23:17.712Z,12.65
2022-09-23T11:25:34.841Z,9.48
2022-09-23T11:27:52.927Z,4.95
2022-09-23T11:30:12.172Z,5.50
2022-09-23T11:32:29.216Z,3.45
2022-09-23T11:34:48.893Z,6.10
2022-09-23T11:37:08.071Z,2.63
2022-09-23T11:39:25.189Z,2.88
2022-09-23T11:41:42.323Z,3.88
2022-09-23T11:43:59.261Z,5.30
2022-09-23T11:46:17.611Z,3.33
2022-09-23T11:48:35.618Z,3.13
2022-09-23T11:50:52.650Z,3.65
2022-09-23T11:53:09.759Z,3.20
2022-09-23T11:55:26.762Z,4.15
2022-09-23T11:57:48.811Z,3.47
2022-09-23T12:00:06.512Z,4.00
2022-09-23T12:02:28.196Z,3.17
2022-09-23T12:04:55.684Z,5.45
2022-09-23T12:07:14.368Z,3.40
2022-09-23T12:09:56.618Z,3.47
2022-09-23T12:12:09.738Z,3.80
2022-09-23T12:14:26.989Z,3.55
2022-09-23T12:16:44.426Z,3.65
2022-09-23T12:19:01.498Z,2.28
2022-09-23T12:23:56.518Z,3.15
2022-09-23T12:26:13.678Z,3.60
2022-09-23T12:28:30.798Z,3.15
2022-09-23T12:30:50.224Z,3.63
2022-09-23T12:33:07.394Z,3.65
2022-09-23T12:35:24.682Z,3.97
2022-09-23T12:37:41.641Z,3.97
2022-09-23T12:39:58.582Z,3.78
2022-09-23T12:42:15.642Z,3.08
2022-09-23T12:44:32.743Z,5.57
2022-09-23T12:46:50.298Z,3.92
2022-09-23T12:49:08.300Z,2.50
2022-09-23T12:51:25.453Z,5.82
2022-09-23T12:53:42.806Z,3.25
2022-09-23T12:56:00.177Z,5.22
2022-09-23T12:58:17.200Z,6.07
2022-09-23T13:00:34.527Z,2.80
2022-09-23T13:02:51.645Z,3.83
2022-09-23T13:05:08.890Z,2.40
2022-09-23T13:07:27.193Z,3.33
2022-09-23T13:09:44.466Z,3.05
2022-09-23T13:12:04.362Z,4.40
2022-09-23T13:14:26.615Z,4.90
2022-09-23T13:16:44.583Z,2.22
2022-09-23T13:19:01.889Z,3.38
2022-09-23T13:21:21.728Z,3.80
2022-09-23T13:23:38.844Z,6.60
2022-09-23T13:25:55.789Z,3.85
2022-09-23T13:28:12.854Z,4.03
2022-09-23T13:30:31.207Z,3.25
2022-09-23T13:32:50.635Z,4.38
2022-09-23T13:35:07.584Z,5.22
2022-09-23T13:37:24.865Z,3.15
2022-09-23T13:39:42.167Z,3.70
2022-09-23T13:41:59.689Z,4.97
2022-09-23T13:44:19.058Z,5.05
2022-09-23T13:46:36.577Z,2.72
2022-09-23T13:48:54.822Z,2.60
2022-09-23T13:51:13.357Z,3.05
2022-09-23T13:53:30.659Z,4.05
2022-09-23T13:55:52.254Z,2.92
2022-09-23T13:58:10.521Z,5.53
2022-09-23T14:00:27.500Z,4.20
2022-09-23T14:02:44.864Z,3.42
2022-09-23T14:05:02.990Z,5.97
2022-09-23T14:07:22.419Z,4.85
2022-09-23T14:09:40.302Z,3.58
2022-09-23T14:11:57.537Z,3.17
2022-09-23T14:14:14.808Z,2.58
2022-09-23T14:16:31.809Z,5.15
2022-09-23T14:18:49.045Z,2.65
2022-09-23T14:21:06.940Z,3.17
2022-09-23T14:23:23.877Z,2.45
2022-09-23T14:25:41.219Z,2.67
2022-09-23T14:28:00.563Z,2.63
2022-09-23T14:30:17.787Z,7.38
2022-09-23T14:32:34.723Z,2.53
2022-09-23T14:34:51.727Z,4.38
2022-09-23T14:37:08.592Z,2.40
2022-09-23T14:39:25.902Z,2.67
2022-09-23T14:41:43.837Z,2.83
2022-09-23T14:44:00.943Z,2.80
2022-09-23T14:46:17.946Z,3.05
2022-09-23T14:48:35.254Z,3.90
2022-09-23T14:50:52.242Z,6.45
2022-09-23T14:53:10.528Z,2.30
2022-09-23T14:55:27.482Z,4.15
2022-09-23T14:57:44.388Z,6.80
2022-09-23T15:00:01.438Z,2.22
2022-09-23T15:02:18.636Z,2.67
2022-09-23T15:04:38.055Z,4.32
2022-09-23T15:06:55.063Z,3.80
2022-09-23T15:09:12.065Z,4.65
2022-09-23T15:11:29.071Z,2.55
2022-09-23T15:13:46.063Z,3.42
2022-09-23T15:16:03.384Z,3.30
2022-09-23T15:18:20.409Z,2.08
2022-09-23T15:20:38.444Z,4.45
2022-09-23T15:22:55.449Z,4.40
2022-09-23T15:25:12.409Z,2.38
2022-09-23T15:27:30.778Z,4.22
2022-09-23T15:29:48.164Z,2.45
2022-09-23T15:32:05.185Z,3.90
2022-09-23T15:34:22.481Z,5.05
2022-09-23T15:36:40.046Z,3.65
2022-09-23T15:38:57.257Z,3.85
2022-09-23T15:41:15.474Z,5.63
2022-09-23T15:43:33.119Z,5.65
2022-09-23T15:45:50.106Z,5.13
2022-09-23T15:48:07.146Z,3.67
2022-09-23T15:50:25.062Z,2.47
2022-09-23T15:52:43.335Z,3.13
2022-09-23T15:55:00.501Z,3.70
2022-09-23T15:57:18.511Z,4.32
2022-09-23T15:59:35.383Z,3.83
2022-09-23T16:01:53.184Z,3.45
2022-09-23T16:04:10.231Z,3.13
2022-09-23T16:06:28.280Z,6.75
2022-09-23T16:08:45.495Z,3.00
2022-09-23T16:11:02.668Z,5.28
2022-09-23T16:13:19.656Z,3.60
2022-09-23T16:15:36.694Z,3.60
2022-09-23T16:17:53.811Z,3.53
2022-09-23T16:20:11.671Z,4.10
2022-09-23T16:22:28.894Z,3.28
2022-09-23T16:24:46.038Z,3.05
2022-09-23T16:27:03.273Z,3.08
2022-09-23T16:29:20.500Z,7.22
2022-09-23T16:31:39.970Z,4.55
2022-09-23T16:33:57.275Z,5.90
2022-09-23T16:36:14.469Z,5.72
2022-09-23T16:38:31.447Z,6.15
2022-09-23T16:40:49.376Z,4.25
2022-09-23T16:43:06.318Z,7.38
2022-09-23T16:45:23.402Z,3.92
2022-09-23T16:47:40.708Z,4.55
2022-09-23T16:49:57.707Z,3.78
2022-09-23T16:52:14.627Z,4.45
2022-09-23T16:54:31.629Z,3.63
2022-09-23T16:56:48.649Z,4.75
2022-09-23T16:59:05.750Z,5.43
2022-09-23T17:01:23.303Z,4.63
2022-09-23T17:03:40.273Z,3.65
2022-09-23T17:05:58.708Z,4.03
2022-09-23T17:08:15.955Z,6.60
2022-09-23T17:10:33.739Z,6.90
2022-09-23T17:12:51.096Z,4.75
2022-09-23T17:15:08.082Z,6.88
2022-09-23T17:17:26.048Z,6.82
2022-09-23T17:19:44.285Z,5.30
2022-09-23T17:22:01.461Z,7.03
2022-09-23T17:24:18.440Z,5.22
2022-09-23T17:26:35.906Z,5.28
2022-09-23T17:28:53.136Z,6.78
2022-09-23T17:31:11.430Z,19.13
2022-09-23T17:33:28.477Z,16.08
2022-09-23T17:35:46.736Z,14.10
2022-09-23T17:38:03.968Z,10.65
2022-09-23T17:40:22.338Z,11.45
2022-09-23T17:42:39.682Z,13.77
2022-09-23T17:44:57.688Z,9.93
2022-09-23T17:47:14.691Z,14.52
2022-09-23T17:49:31.966Z,13.43
2022-09-23T17:51:48.892Z,10.15
2022-09-23T17:54:05.843Z,8.30
2022-09-23T17:56:23.488Z,8.38
2022-09-23T17:58:40.494Z,10.43
2022-09-23T18:00:58.511Z,16.90
2022-09-23T18:03:15.582Z,17.90
2022-09-23T18:05:33.800Z,22.02
2022-09-23T18:07:50.732Z,17.27
2022-09-23T18:10:09.522Z,18.90
2022-09-23T18:12:28.105Z,13.50
2022-09-23T18:14:45.097Z,6.90
2022-09-23T18:17:03.384Z,9.95
2022-09-23T18:19:20.833Z,7.40
2022-09-23T18:21:39.052Z,13.02
2022-09-23T18:24:06.493Z,8.85
2022-09-23T18:26:33.620Z,13.38
2022-09-23T18:28:51.777Z,7.70
2022-09-23T18:31:09.167Z,8.43
2022-09-23T18:33:27.232Z,10.93
2022-09-23T18:35:44.456Z,9.40
2022-09-23T18:38:01.935Z,6.80
2022-09-23T18:40:20.272Z,7.32
2022-09-23T18:42:39.788Z,6.25
2022-09-23T18:44:56.821Z,6.80
2022-09-23T18:47:15.158Z,10.68
2022-09-23T18:49:32.143Z,8.23
2022-09-23T18:51:49.432Z,7.32
2022-09-23T18:54:06.759Z,4.10
2022-09-23T18:56:23.801Z,5.50
2022-09-23T18:58:40.974Z,7.03
2022-09-23T19:00:58.989Z,7.40
2022-09-23T19:03:16.066Z,6.35
2022-09-23T19:05:33.347Z,7.53
2022-09-23T19:07:50.228Z,5.80
2022-09-23T19:10:07.577Z,4.38
2022-09-23T19:12:25.553Z,5.18
2022-09-23T19:14:42.489Z,4.82
2022-09-23T19:17:00.025Z,3.95
2022-09-23T19:19:16.914Z,4.78
2022-09-23T19:21:34.174Z,3.17
2022-09-23T19:23:52.157Z,6.20
2022-09-23T19:26:09.196Z,8.85
2022-09-23T19:28:26.222Z,8.57
2022-09-23T19:30:43.488Z,4.80
2022-09-23T19:33:00.492Z,5.03
2022-09-23T19:35:18.816Z,4.07
2022-09-23T19:37:36.731Z,2.88
2022-09-23T19:39:53.790Z,4.22
2022-09-23T19:42:10.821Z,5.10
2022-09-23T19:44:29.015Z,3.35
2022-09-23T19:46:46.324Z,5.90
2022-09-23T19:49:03.631Z,4.00
2022-09-23T19:51:20.631Z,3.70
2022-09-23T19:53:38.979Z,7.53
2022-09-23T19:55:56.267Z,10.32
2022-09-23T19:58:13.210Z,11.30
2022-09-23T20:00:30.583Z,6.95
2022-09-23T20:02:47.816Z,5.45
2022-09-23T20:05:05.089Z,4.82
2022-09-23T20:07:22.048Z,4.30
2022-09-23T20:09:38.929Z,4.45
2022-09-23T20:11:55.859Z,4.55
2022-09-23T20:14:13.155Z,7.50
2022-09-23T20:16:30.290Z,3.88
2022-09-23T20:18:48.300Z,4.28
2022-09-23T20:21:05.439Z,5.38
2022-09-23T20:23:22.409Z,3.15
2022-09-23T20:25:40.890Z,6.93
2022-09-23T20:27:59.228Z,4.28
2022-09-23T20:30:16.478Z,5.70
2022-09-23T20:32:33.500Z,4.28
2022-09-23T20:34:51.348Z,5.00
2022-09-23T20:37:08.930Z,4.60
2022-09-23T20:39:26.158Z,5.55
2022-09-23T20:41:44.074Z,5.93
2022-09-23T20:44:01.016Z,7.13
2022-09-23T20:46:19.070Z,6.30
2022-09-23T20:48:36.407Z,4.95
2022-09-23T20:50:54.424Z,8.93
2022-09-23T20:53:12.799Z,5.18
2022-09-23T20:55:29.773Z,6.63
2022-09-23T20:57:46.802Z,6.82
2022-09-23T21:00:03.783Z,5.68
2022-09-23T21:02:21.064Z,5.70
2022-09-23T21:04:37.973Z,7.28
2022-09-23T21:06:55.605Z,5.20
2022-09-23T21:09:12.783Z,4.30
2022-09-23T21:11:29.989Z,5.78
2022-09-23T21:13:49.339Z,9.13
2022-09-23T21:16:07.322Z,4.22
2022-09-23T21:18:24.626Z,5.15
2022-09-23T21:20:42.065Z,6.78
2022-09-23T21:22:59.067Z,4.07
2022-09-23T21:25:27.378Z,4.15
2022-09-23T21:27:45.640Z,3.80
2022-09-23T21:30:02.913Z,6.35
2022-09-23T21:32:19.861Z,7.03
2022-09-23T21:34:37.200Z,4.13
2022-09-23T21:36:54.454Z,6.78
2022-09-23T21:39:12.665Z,7.40
2022-09-23T21:41:29.632Z,6.13
2022-09-23T21:43:47.644Z,6.78
2022-09-23T21:46:04.606Z,7.20
2022-09-23T21:48:21.910Z,7.32
2022-09-23T21:50:39.147Z,5.40
2022-09-23T21:52:57.339Z,4.97
2022-09-23T21:55:14.575Z,4.88
2022-09-23T21:57:31.814Z,5.32
2022-09-23T21:59:49.069Z,4.93
2022-09-23T22:02:06.274Z,5.25
2022-09-23T22:04:23.328Z,5.22
2022-09-23T22:06:40.699Z,6.72
2022-09-23T22:08:57.581Z,6.95
2022-09-23T22:11:15.601Z,7.30
2022-09-23T22:13:32.527Z,5.32
2022-09-23T22:15:49.560Z,5.45
2022-09-23T22:18:06.489Z,5.57
2022-09-23T22:20:24.712Z,5.95
2022-09-23T22:22:41.949Z,4.10
2022-09-23T22:24:58.975Z,4.43
2022-09-23T22:27:15.966Z,5.25
2022-09-23T22:29:32.866Z,3.50
2022-09-23T22:31:49.917Z,4.65
2022-09-23T22:34:08.253Z,3.55
2022-09-23T22:36:30.877Z,4.53
2022-09-23T22:38:48.127Z,3.70
2022-09-23T22:41:05.135Z,5.63
2022-09-23T22:43:22.176Z,7.53
2022-09-23T22:45:39.208Z,3.55
2022-09-23T22:47:56.103Z,3.53
2022-09-23T22:50:14.031Z,3.97
2022-09-23T22:52:31.147Z,5.43
2022-09-23T22:54:48.022Z,5.95
2022-09-23T22:57:05.931Z,3.88
2022-09-23T22:59:22.937Z,4.03
2022-09-23T23:01:40.208Z,5.97
2022-09-23T23:03:57.262Z,5.03
2022-09-23T23:06:14.618Z,8.88
2022-09-23T23:08:32.552Z,3.78
2022-09-23T23:10:49.858Z,4.90
2022-09-23T23:13:07.945Z,4.22
2022-09-23T23:15:26.330Z,5.28
2022-09-23T23:17:43.765Z,4.60
2022-09-23T23:20:01.762Z,4.82
2022-09-23T23:22:18.689Z,4.13
2022-09-23T23:24:36.221Z,4.35
2022-09-23T23:26:53.133Z,3.78
2022-09-23T23:29:11.386Z,4.57
2022-09-23T23:31:28.789Z,7.18
2022-09-23T23:33:48.671Z,4.88
2022-09-23T23:36:06.286Z,4.32
2022-09-23T23:38:24.594Z,6.13
2022-09-23T23:40:41.631Z,4.38
2022-09-23T23:42:58.611Z,5.32
2022-09-23T23:45:15.504Z,3.70
2022-09-23T23:47:32.422Z,8.43
2022-09-23T23:49:49.525Z,3.85
2022-09-23T23:52:07.734Z,5.65
2022-09-23T23:54:25.942Z,4.15
2022-09-23T23:56:43.161Z,4.85
2022-09-23T23:59:00.238Z,4.63
